createdAt,value
2017-01-11T00:00:36.522Z,3.96
2017-01-11T00:01:58.997Z,4.02
2017-01-11T00:03:21.853Z,3.98
2017-01-11T00:04:44.066Z,4.04
2017-01-11T00:06:06.911Z,3.97
2017-01-11T00:07:29.501Z,3.97
2017-01-11T00:08:52.356Z,4.05
2017-01-11T00:10:15.356Z,4.02
2017-01-11T00:11:37.868Z,4
2017-01-11T00:13:00.761Z,4.02
2017-01-11T00:14:23.615Z,4
2017-01-11T00:15:45.753Z,3.98
2017-01-11T00:17:08.624Z,3.98
2017-01-11T00:18:30.695Z,4.02
2017-01-11T00:19:53.672Z,4.08
2017-01-11T00:21:16.580Z,3.97
2017-01-11T00:22:39.093Z,3.94
2017-01-11T00:24:01.546Z,4.04
2017-01-11T00:25:24.015Z,3.97
2017-01-11T00:26:46.869Z,4.06
2017-01-11T00:28:09.384Z,4
2017-01-11T00:29:32.263Z,3.94
2017-01-11T00:30:55.115Z,4.06
2017-01-11T00:32:17.255Z,3.97
2017-01-11T00:33:39.779Z,4.02
2017-01-11T00:35:02.354Z,4.06
2017-01-11T00:36:24.813Z,3.98
2017-01-11T00:37:47.267Z,4
2017-01-11T00:39:09.582Z,3.97
2017-01-11T00:40:32.040Z,4
2017-01-11T00:41:54.493Z,4.04
2017-01-11T00:43:16.941Z,4.09
2017-01-11T00:44:39.439Z,4.02
2017-01-11T00:46:01.089Z,4.11
2017-01-11T00:47:24.056Z,4.05
2017-01-11T00:48:46.511Z,4.06
2017-01-11T00:50:09.484Z,4.11
2017-01-11T00:51:31.240Z,4.06
2017-01-11T00:52:53.412Z,4.08
2017-01-11T00:54:15.487Z,4.08
2017-01-11T00:55:37.162Z,4.06
2017-01-11T00:56:59.258Z,4.09
2017-01-11T00:58:20.535Z,4.09
2017-01-11T00:59:43.013Z,4.06
2017-01-11T01:01:05.471Z,4.04
2017-01-11T01:02:27.935Z,4.04
2017-01-11T01:03:50.505Z,4.08
2017-01-11T01:05:12.585Z,4.08
2017-01-11T01:06:35.052Z,4.04
2017-01-11T01:07:57.564Z,4.14
2017-01-11T01:09:20.006Z,4.14
2017-01-11T01:10:41.784Z,4.15
2017-01-11T01:12:04.633Z,4.12
2017-01-11T01:13:26.335Z,4.12
2017-01-11T01:14:49.254Z,4.11
2017-01-11T01:16:11.326Z,4.14
2017-01-11T01:17:33.877Z,4.18
2017-01-11T01:18:55.942Z,4.12
2017-01-11T01:20:18.577Z,4.2
2017-01-11T01:21:40.622Z,4.15
2017-01-11T01:23:03.106Z,4.16
2017-01-11T01:24:25.675Z,4.11
2017-01-11T01:25:48.519Z,4.16
2017-01-11T01:27:11.146Z,4.11
2017-01-11T01:28:33.347Z,4.11
2017-01-11T01:29:56.221Z,4.15
2017-01-11T01:31:18.696Z,4.15
2017-01-11T01:32:40.886Z,4.14
2017-01-11T01:34:03.458Z,4.14
2017-01-11T01:35:26.306Z,4.26
2017-01-11T01:36:48.738Z,4.12
2017-01-11T01:38:10.810Z,4.22
2017-01-11T01:39:33.313Z,4.2
2017-01-11T01:40:55.537Z,4.29
2017-01-11T01:42:17.616Z,4.24
2017-01-11T01:43:40.077Z,4.24
2017-01-11T01:45:02.945Z,4.24
2017-01-11T01:46:25.794Z,4.24
2017-01-11T01:47:48.277Z,4.24
2017-01-11T01:49:10.345Z,4.18
2017-01-11T01:50:33.194Z,4.2
2017-01-11T01:51:56.150Z,4.18
2017-01-11T01:53:19.005Z,4.22
2017-01-11T01:54:41.655Z,4.26
2017-01-11T01:56:04.519Z,4.12
2017-01-11T01:57:26.618Z,4.18
2017-01-11T01:58:49.125Z,4.15
2017-01-11T02:00:11.977Z,4.16
2017-01-11T02:01:34.832Z,4.11
2017-01-11T02:02:56.952Z,4.11
2017-01-11T02:04:19.798Z,4.23
2017-01-11T02:05:41.054Z,4.2
2017-01-11T02:07:03.613Z,4.22
2017-01-11T02:08:25.336Z,4.15
2017-01-11T02:09:47.781Z,4.2
2017-01-11T02:11:09.887Z,4.24
2017-01-11T02:12:31.928Z,4.18
2017-01-11T02:13:53.746Z,4.22
2017-01-11T02:15:16.595Z,4.22
2017-01-11T02:16:39.101Z,4.26
2017-01-11T02:18:00.754Z,4.23
2017-01-11T02:19:23.260Z,4.24
2017-01-11T02:20:45.817Z,4.2
2017-01-11T02:22:08.682Z,4.24
2017-01-11T02:23:30.883Z,4.15
2017-01-11T02:24:53.436Z,4.24
2017-01-11T02:26:15.904Z,4.18
2017-01-11T02:27:38.741Z,4.12
2017-01-11T02:29:01.779Z,4.2
2017-01-11T02:30:24.280Z,4.2
2017-01-11T02:31:46.831Z,4.22
2017-01-11T02:33:08.916Z,4.12
2017-01-11T02:34:31.385Z,4.16
2017-01-11T02:35:53.431Z,4.2
2017-01-11T02:37:15.509Z,4.16
2017-01-11T02:38:38.370Z,4.14
2017-01-11T02:40:00.885Z,4.08
2017-01-11T02:41:23.411Z,4.14
2017-01-11T02:42:45.889Z,4.12
2017-01-11T02:44:08.349Z,4.11
2017-01-11T02:45:30.406Z,4.2
2017-01-11T02:46:52.467Z,4.12
2017-01-11T02:48:14.927Z,4.14
2017-01-11T02:49:37.762Z,4.11
2017-01-11T02:51:00.207Z,4.14
2017-01-11T02:52:22.257Z,4.15
2017-01-11T02:53:44.713Z,4.14
2017-01-11T02:55:07.198Z,4.12
2017-01-11T02:56:29.655Z,4.12
2017-01-11T02:57:52.126Z,4.14
2017-01-11T02:59:14.235Z,4.09
2017-01-11T03:00:36.706Z,4.11
2017-01-11T03:01:59.612Z,4.15
2017-01-11T03:03:22.074Z,4.15
2017-01-11T03:04:44.143Z,4.09
2017-01-11T03:06:06.588Z,4.08
2017-01-11T03:07:29.474Z,4.08
2017-01-11T03:08:51.676Z,4.06
2017-01-11T03:10:13.771Z,4.12
2017-01-11T03:11:35.428Z,4.08
2017-01-11T03:12:57.907Z,4.06
2017-01-11T03:14:20.363Z,4.11
2017-01-11T03:15:42.868Z,4.05
2017-01-11T03:17:05.004Z,4.06
2017-01-11T03:18:27.511Z,3.98
2017-01-11T03:19:49.587Z,4.05
2017-01-11T03:21:12.040Z,3.97
2017-01-11T03:22:34.499Z,4.11
2017-01-11T03:23:57.011Z,4.04
2017-01-11T03:25:19.459Z,4.06
2017-01-11T03:26:42.318Z,4.05
2017-01-11T03:28:04.874Z,3.98
2017-01-11T03:29:26.561Z,4.02
2017-01-11T03:30:49.124Z,4.02
2017-01-11T03:32:11.574Z,4.09
2017-01-11T03:33:34.022Z,4.04
2017-01-11T03:34:56.883Z,4.08
2017-01-11T03:36:19.358Z,4.09
2017-01-11T03:37:42.242Z,4.06
2017-01-11T03:39:04.757Z,4.06
2017-01-11T03:40:27.217Z,4.14
2017-01-11T03:41:49.744Z,4.14
2017-01-11T03:43:12.632Z,4.15
2017-01-11T03:44:34.683Z,4.12
2017-01-11T03:45:56.727Z,4.16
2017-01-11T03:47:18.383Z,4.11
2017-01-11T03:48:40.568Z,4.16
2017-01-11T03:50:03.184Z,4.15
2017-01-11T03:51:26.060Z,4.18
2017-01-11T03:52:48.509Z,4.15
2017-01-11T03:54:10.670Z,4.24
2017-01-11T03:55:33.163Z,4.22
2017-01-11T03:56:56.093Z,4.2
2017-01-11T03:58:18.184Z,4.23
2017-01-11T03:59:41.191Z,4.18
2017-01-11T04:01:03.662Z,4.22
2017-01-11T04:02:26.216Z,4.26
2017-01-11T04:03:48.333Z,4.24
2017-01-11T04:05:10.945Z,4.24
2017-01-11T04:06:33.018Z,4.23
2017-01-11T04:07:55.522Z,4.22
2017-01-11T04:09:18.027Z,4.23
2017-01-11T04:10:40.652Z,4.18
2017-01-11T04:12:03.106Z,4.24
2017-01-11T04:13:23.986Z,4.2
2017-01-11T04:14:46.687Z,4.27
2017-01-11T04:16:09.565Z,4.3
2017-01-11T04:17:31.231Z,4.36
2017-01-11T04:18:53.377Z,4.3
2017-01-11T04:20:15.471Z,4.32
2017-01-11T04:21:38.436Z,4.32
2017-01-11T04:23:00.465Z,4.41
2017-01-11T04:24:22.176Z,4.33
2017-01-11T04:25:44.665Z,4.32
2017-01-11T04:27:07.166Z,4.32
2017-01-11T04:28:29.282Z,4.29
2017-01-11T04:29:52.077Z,4.3
2017-01-11T04:31:14.532Z,4.33
2017-01-11T04:32:37.518Z,4.29
2017-01-11T04:33:59.972Z,4.36
2017-01-11T04:35:22.458Z,4.36
2017-01-11T04:36:44.950Z,4.34
2017-01-11T04:38:06.619Z,4.36
2017-01-11T04:39:29.077Z,4.37
2017-01-11T04:40:51.158Z,4.36
2017-01-11T04:42:13.262Z,4.34
2017-01-11T04:43:35.040Z,4.36
2017-01-11T04:44:57.915Z,4.4
2017-01-11T04:46:19.960Z,4.32
2017-01-11T04:47:41.679Z,4.29
2017-01-11T04:49:04.154Z,4.33
2017-01-11T04:50:27.015Z,4.33
2017-01-11T04:51:49.866Z,4.4
2017-01-11T04:53:12.332Z,4.4
2017-01-11T04:54:34.019Z,4.4
2017-01-11T04:55:56.487Z,4.41
2017-01-11T04:57:18.969Z,4.37
2017-01-11T04:58:41.147Z,4.41
2017-01-11T05:00:03.719Z,4.41
2017-01-11T05:01:26.598Z,4.36
2017-01-11T05:02:49.616Z,4.44
2017-01-11T05:04:11.288Z,4.42
2017-01-11T05:05:34.217Z,4.4
2017-01-11T05:06:56.699Z,4.42
2017-01-11T05:08:18.769Z,4.5
2017-01-11T05:09:41.328Z,4.45
2017-01-11T05:11:03.537Z,4.44
2017-01-11T05:12:25.613Z,4.36
2017-01-11T05:13:47.680Z,4.48
2017-01-11T05:15:10.192Z,4.41
2017-01-11T05:16:32.672Z,4.42
2017-01-11T05:17:55.129Z,4.48
2017-01-11T05:19:17.737Z,4.4
2017-01-11T05:20:39.544Z,4.5
2017-01-11T05:22:01.600Z,4.45
2017-01-11T05:23:24.469Z,4.5
2017-01-11T05:24:46.631Z,4.51
2017-01-11T05:26:08.710Z,4.52
2017-01-11T05:27:30.790Z,4.47
2017-01-11T05:28:52.857Z,4.48
2017-01-11T05:30:15.745Z,4.51
2017-01-11T05:31:38.228Z,4.47
2017-01-11T05:33:00.669Z,4.5
2017-01-11T05:34:23.177Z,4.51
2017-01-11T05:35:45.338Z,4.5
2017-01-11T05:37:08.197Z,4.51
2017-01-11T05:38:31.040Z,4.54
2017-01-11T05:39:53.896Z,4.5
2017-01-11T05:41:16.896Z,4.52
2017-01-11T05:42:39.812Z,4.48
2017-01-11T05:44:02.657Z,4.54
2017-01-11T05:45:24.328Z,4.51
2017-01-11T05:46:47.225Z,4.55
2017-01-11T05:48:09.820Z,4.52
2017-01-11T05:49:31.870Z,4.5
2017-01-11T05:50:54.804Z,4.54
2017-01-11T05:52:17.903Z,4.51
2017-01-11T05:53:39.572Z,4.5
2017-01-11T05:55:02.039Z,4.51
2017-01-11T05:56:24.514Z,4.5
2017-01-11T05:57:46.615Z,4.59
2017-01-11T05:59:09.248Z,4.54
2017-01-11T06:00:32.098Z,4.58
2017-01-11T06:01:54.602Z,4.6
2017-01-11T06:03:17.146Z,4.55
2017-01-11T06:04:39.999Z,4.59
2017-01-11T06:06:02.461Z,4.6
2017-01-11T06:07:24.654Z,4.63
2017-01-11T06:08:47.298Z,4.62
2017-01-11T06:10:09.434Z,4.59
2017-01-11T06:11:32.327Z,4.6
2017-01-11T06:12:54.784Z,4.62
2017-01-11T06:14:16.047Z,4.6
2017-01-11T06:15:38.482Z,4.6
2017-01-11T06:17:01.066Z,4.58
2017-01-11T06:18:23.657Z,4.69
2017-01-11T06:19:46.107Z,4.72
2017-01-11T06:21:08.965Z,4.59
2017-01-11T06:22:31.437Z,4.58
2017-01-11T06:23:53.926Z,4.6
2017-01-11T06:25:16.387Z,4.62
2017-01-11T06:26:39.368Z,4.66
2017-01-11T06:28:02.257Z,4.67
2017-01-11T06:29:25.304Z,4.69
2017-01-11T06:30:48.206Z,4.66
2017-01-11T06:32:10.657Z,4.67
2017-01-11T06:33:33.518Z,4.67
2017-01-11T06:34:55.992Z,4.65
2017-01-11T06:36:18.457Z,4.6
2017-01-11T06:37:40.934Z,4.63
2017-01-11T06:39:03.835Z,4.72
2017-01-11T06:40:25.886Z,4.82
2017-01-11T06:41:48.385Z,4.63
2017-01-11T06:43:10.874Z,4.67
2017-01-11T06:44:33.467Z,4.7
2017-01-11T06:45:56.339Z,4.7
2017-01-11T06:47:19.196Z,4.65
2017-01-11T06:48:41.868Z,4.67
2017-01-11T06:50:04.734Z,4.8
2017-01-11T06:51:26.776Z,4.67
2017-01-11T06:52:49.764Z,4.72
2017-01-11T06:54:12.624Z,4.7
2017-01-11T06:55:34.686Z,4.77
2017-01-11T06:56:57.660Z,4.8
2017-01-11T06:58:20.562Z,4.7
2017-01-11T06:59:43.143Z,4.73
2017-01-11T07:01:05.583Z,4.73
2017-01-11T07:02:28.473Z,4.77
2017-01-11T07:03:51.407Z,4.84
2017-01-11T07:05:14.017Z,4.82
2017-01-11T07:06:35.680Z,4.88
2017-01-11T07:07:58.253Z,4.84
2017-01-11T07:09:20.319Z,4.8
2017-01-11T07:10:42.787Z,4.8
2017-01-11T07:12:04.434Z,4.86
2017-01-11T07:13:39.456Z,4.84
2017-01-11T07:15:01.924Z,4.82
2017-01-11T07:16:24.012Z,4.88
2017-01-11T07:17:46.087Z,4.91
2017-01-11T07:19:08.933Z,4.85
2017-01-11T07:20:31.933Z,4.86
2017-01-11T07:21:54.794Z,4.96
2017-01-11T07:23:17.645Z,4.91
2017-01-11T07:24:40.094Z,4.96
2017-01-11T07:26:02.153Z,4.91
2017-01-11T07:27:24.739Z,5
2017-01-11T07:28:47.174Z,5
2017-01-11T07:30:09.232Z,5.02
2017-01-11T07:31:31.344Z,5.06
2017-01-11T07:32:54.199Z,5.06
2017-01-11T07:34:16.654Z,5.04
2017-01-11T07:35:39.183Z,5.02
2017-01-11T07:37:01.270Z,5.13
2017-01-11T07:38:23.395Z,5.09
2017-01-11T07:39:46.355Z,5
2017-01-11T07:41:08.824Z,5.1
2017-01-11T07:42:30.491Z,5.12
2017-01-11T07:43:53.087Z,5.17
2017-01-11T07:45:15.616Z,5.21
2017-01-11T07:46:38.481Z,5.18
2017-01-11T07:48:01.446Z,5.21
2017-01-11T07:49:24.302Z,5.27
2017-01-11T07:50:47.379Z,5.2
2017-01-11T07:52:09.828Z,5.21
2017-01-11T07:53:32.316Z,5.27
2017-01-11T07:54:54.875Z,5.22
2017-01-11T07:56:17.417Z,5.3
2017-01-11T07:57:39.908Z,5.3
2017-01-11T07:59:02.913Z,5.24
2017-01-11T08:00:25.824Z,5.28
2017-01-11T08:01:48.668Z,5.27
2017-01-11T08:03:11.150Z,5.3
2017-01-11T08:04:33.606Z,5.31
2017-01-11T08:05:56.239Z,5.25
2017-01-11T08:07:19.271Z,5.28
2017-01-11T08:08:42.155Z,5.28
2017-01-11T08:10:04.614Z,5.28
2017-01-11T08:11:27.471Z,5.28
2017-01-11T08:12:49.953Z,5.27
2017-01-11T08:14:12.433Z,5.3
2017-01-11T08:15:34.491Z,5.28
2017-01-11T08:16:56.982Z,5.3
2017-01-11T08:18:19.545Z,5.24
2017-01-11T08:19:41.998Z,5.25
2017-01-11T08:21:04.257Z,5.3
2017-01-11T08:22:26.314Z,5.25
2017-01-11T08:23:49.290Z,5.25
2017-01-11T08:25:12.132Z,5.21
2017-01-11T08:26:34.204Z,5.21
2017-01-11T08:27:56.726Z,5.24
2017-01-11T08:29:19.213Z,5.27
2017-01-11T08:30:41.682Z,5.25
2017-01-11T08:32:04.134Z,5.13
2017-01-11T08:33:26.589Z,5.2
2017-01-11T08:34:49.494Z,5.17
2017-01-11T08:36:11.990Z,5.2
2017-01-11T08:37:34.525Z,5.3
2017-01-11T08:38:56.973Z,5.25
2017-01-11T08:40:19.464Z,5.22
2017-01-11T08:41:41.902Z,5.28
2017-01-11T08:43:04.353Z,5.31
2017-01-11T08:44:26.808Z,5.3
2017-01-11T08:45:49.745Z,5.25
2017-01-11T08:47:12.185Z,5.4
2017-01-11T08:48:35.068Z,5.39
2017-01-11T08:49:57.554Z,5.42
2017-01-11T08:51:20.023Z,5.35
2017-01-11T08:52:42.483Z,5.39
2017-01-11T08:54:04.924Z,5.43
2017-01-11T08:55:26.803Z,5.45
2017-01-11T08:56:48.889Z,5.4
2017-01-11T08:58:11.342Z,5.49
2017-01-11T08:59:33.881Z,5.4
2017-01-11T09:00:56.764Z,5.53
2017-01-11T09:02:19.442Z,5.46
2017-01-11T09:03:41.960Z,5.46
2017-01-11T09:05:04.857Z,5.48
2017-01-11T09:06:27.405Z,5.42
2017-01-11T09:07:50.252Z,5.56
2017-01-11T09:09:13.143Z,5.54
2017-01-11T09:10:35.634Z,5.54
2017-01-11T09:11:58.496Z,5.6
2017-01-11T09:13:21.362Z,5.6
2017-01-11T09:14:43.582Z,5.6
2017-01-11T09:16:05.722Z,5.56
2017-01-11T09:17:28.596Z,5.51
2017-01-11T09:18:50.674Z,5.54
2017-01-11T09:20:13.762Z,5.61
2017-01-11T09:21:36.637Z,5.61
2017-01-11T09:22:59.537Z,5.64
2017-01-11T09:24:22.027Z,5.67
2017-01-11T09:25:44.896Z,5.6
2017-01-11T09:27:07.861Z,5.6
2017-01-11T09:28:29.945Z,5.65
2017-01-11T09:29:52.407Z,5.61
2017-01-11T09:31:15.443Z,5.53
2017-01-11T09:32:38.052Z,5.49
2017-01-11T09:34:00.505Z,5.48
2017-01-11T09:35:23.482Z,5.43
2017-01-11T09:36:46.363Z,5.46
2017-01-11T09:38:09.397Z,5.45
2017-01-11T09:39:32.034Z,5.43
2017-01-11T09:40:54.493Z,5.4
2017-01-11T09:42:16.961Z,5.45
2017-01-11T09:43:39.463Z,5.38
2017-01-11T09:45:01.918Z,5.42
2017-01-11T09:46:24.471Z,5.43
2017-01-11T09:47:46.531Z,5.46
2017-01-11T09:49:09.095Z,5.46
2017-01-11T09:50:31.232Z,5.45
2017-01-11T09:51:53.689Z,5.46
2017-01-11T09:53:16.213Z,5.4
2017-01-11T09:54:38.775Z,5.48
2017-01-11T09:56:01.655Z,5.4
2017-01-11T09:57:24.143Z,5.39
2017-01-11T09:58:47.053Z,5.39
2017-01-11T10:00:09.523Z,5.56
2017-01-11T10:01:32.185Z,5.51
2017-01-11T10:02:55.202Z,5.36
2017-01-11T10:04:17.934Z,5.43
2017-01-11T10:05:39.985Z,5.43
2017-01-11T10:07:02.875Z,5.4
2017-01-11T10:08:24.940Z,5.45
2017-01-11T10:09:47.801Z,5.48
2017-01-11T10:11:10.284Z,5.54
2017-01-11T10:12:32.810Z,5.51
2017-01-11T10:13:54.890Z,5.42
2017-01-11T10:15:17.347Z,5.53
2017-01-11T10:16:39.411Z,5.56
2017-01-11T10:18:02.291Z,5.56
2017-01-11T10:19:24.081Z,5.6
2017-01-11T10:20:46.143Z,5.56
2017-01-11T10:22:09.022Z,5.53
2017-01-11T10:23:31.906Z,5.56
2017-01-11T10:24:54.521Z,5.54
2017-01-11T10:26:16.623Z,5.58
2017-01-11T10:27:39.490Z,5.57
2017-01-11T10:29:02.332Z,5.63
2017-01-11T10:30:25.199Z,5.6
2017-01-11T10:31:47.282Z,5.56
2017-01-11T10:33:09.441Z,5.68
2017-01-11T10:34:31.111Z,5.64
2017-01-11T10:35:53.752Z,5.68
2017-01-11T10:37:16.267Z,5.68
2017-01-11T10:38:38.328Z,5.74
2017-01-11T10:40:00.040Z,5.67
2017-01-11T10:41:22.131Z,5.78
2017-01-11T10:42:44.226Z,5.75
2017-01-11T10:44:06.760Z,5.79
2017-01-11T10:45:29.610Z,5.76
2017-01-11T10:46:52.071Z,5.78
2017-01-11T10:48:14.942Z,5.75
2017-01-11T10:49:37.022Z,5.76
2017-01-11T10:50:59.159Z,5.78
2017-01-11T10:52:20.449Z,5.82
2017-01-11T10:53:42.526Z,5.89
2017-01-11T10:55:05.412Z,5.79
2017-01-11T10:56:27.479Z,5.82
2017-01-11T10:57:49.940Z,5.85
2017-01-11T10:59:12.791Z,5.9
2017-01-11T11:00:35.647Z,5.97
2017-01-11T11:01:58.625Z,6
2017-01-11T11:03:21.080Z,5.89
2017-01-11T11:04:43.681Z,6.06
2017-01-11T11:06:05.737Z,6.09
2017-01-11T11:07:27.474Z,6.14
2017-01-11T11:08:50.329Z,6.14
2017-01-11T11:10:12.401Z,6.22
2017-01-11T11:11:34.470Z,6.21
2017-01-11T11:12:56.972Z,6.3
2017-01-11T11:14:19.169Z,6.28
2017-01-11T11:15:40.521Z,6.34
2017-01-11T11:17:03.040Z,6.31
2017-01-11T11:18:25.078Z,6.37
2017-01-11T11:19:46.769Z,6.3
2017-01-11T11:21:09.673Z,6.3
2017-01-11T11:22:31.912Z,6.18
2017-01-11T11:23:53.641Z,6.31
2017-01-11T11:25:16.109Z,6.37
2017-01-11T11:27:10.471Z,6.37
2017-01-11T11:28:32.276Z,6.38
2017-01-11T11:29:53.938Z,6.37
2017-01-11T11:31:15.991Z,6.34
2017-01-11T11:32:38.900Z,6.38
2017-01-11T11:34:00.982Z,6.43
2017-01-11T11:35:23.537Z,6.38
2017-01-11T11:36:45.601Z,6.33
2017-01-11T11:38:08.510Z,6.52
2017-01-11T11:39:30.318Z,6.56
2017-01-11T11:40:53.201Z,6.54
2017-01-11T11:42:14.905Z,6.64
2017-01-11T11:43:37.375Z,6.62
2017-01-11T11:44:59.532Z,6.69
2017-01-11T11:46:21.984Z,6.74
2017-01-11T11:47:44.477Z,6.76
2017-01-11T11:49:06.984Z,6.69
2017-01-11T11:50:29.901Z,6.69
2017-01-11T11:51:51.983Z,6.73
2017-01-11T11:53:14.047Z,6.79
2017-01-11T11:54:36.122Z,6.7
2017-01-11T11:55:58.993Z,6.71
2017-01-11T11:57:20.663Z,6.67
2017-01-11T11:58:42.764Z,6.7
2017-01-11T12:00:04.737Z,6.76
2017-01-11T12:01:27.843Z,6.7
2017-01-11T12:02:50.725Z,6.71
2017-01-11T12:04:12.768Z,6.7
2017-01-11T12:05:35.334Z,6.69
2017-01-11T12:06:58.209Z,6.69
2017-01-11T12:08:20.270Z,6.73
2017-01-11T12:09:43.225Z,6.79
2017-01-11T12:11:05.712Z,6.8
2017-01-11T12:12:27.839Z,6.73
2017-01-11T12:13:49.900Z,6.59
2017-01-11T12:15:12.367Z,6.58
2017-01-11T12:16:34.832Z,6.49
2017-01-11T12:17:56.885Z,6.18
2017-01-11T12:19:19.858Z,6.15
2017-01-11T12:20:42.340Z,6.03
2017-01-11T12:22:04.821Z,5.97
2017-01-11T12:23:27.690Z,6.06
2017-01-11T12:24:49.770Z,5.97
2017-01-11T12:26:11.967Z,5.94
2017-01-11T12:27:34.836Z,5.97
2017-01-11T12:28:57.414Z,5.97
2017-01-11T12:30:19.615Z,6.04
2017-01-11T12:31:42.069Z,6.06
2017-01-11T12:33:04.931Z,6
2017-01-11T12:34:27.073Z,6.08
2017-01-11T12:35:49.541Z,6.06
2017-01-11T12:37:11.277Z,6.11
2017-01-11T12:38:33.733Z,6.22
2017-01-11T12:39:56.198Z,6.21
2017-01-11T12:41:19.125Z,6.19
2017-01-11T12:42:41.994Z,6.37
2017-01-11T12:44:04.446Z,6.61
2017-01-11T12:45:27.313Z,6.59
2017-01-11T12:46:49.864Z,6.62
2017-01-11T12:48:12.356Z,6.69
2017-01-11T12:49:35.283Z,6.62
2017-01-11T12:50:57.035Z,6.64
2017-01-11T12:52:19.919Z,6.61
2017-01-11T12:53:42.019Z,6.58
2017-01-11T12:55:04.080Z,6.59
2017-01-11T12:56:26.683Z,6.67
2017-01-11T12:57:48.797Z,6.77
2017-01-11T12:59:10.531Z,6.62
2017-01-11T13:00:32.616Z,6.71
2017-01-11T13:01:55.327Z,6.76
2017-01-11T13:03:17.863Z,6.81
2017-01-11T13:04:39.523Z,6.91
2017-01-11T13:06:01.605Z,6.89
2017-01-11T13:07:24.553Z,6.85
2017-01-11T13:08:46.632Z,6.77
2017-01-11T13:10:09.527Z,6.81
2017-01-11T13:11:31.991Z,6.79
2017-01-11T13:12:54.507Z,6.73
2017-01-11T13:14:17.489Z,6.8
2017-01-11T13:15:39.964Z,6.7
2017-01-11T13:17:02.484Z,6.7
2017-01-11T13:18:24.980Z,6.73
2017-01-11T13:19:47.554Z,6.71
2017-01-11T13:21:10.188Z,6.76
2017-01-11T13:22:33.058Z,6.69
2017-01-11T13:23:55.132Z,6.77
2017-01-11T13:25:18.139Z,6.69
2017-01-11T13:26:40.196Z,6.7
2017-01-11T13:28:03.076Z,6.67
2017-01-11T13:29:25.141Z,6.69
2017-01-11T13:30:47.028Z,6.79
2017-01-11T13:32:09.982Z,6.81
2017-01-11T13:33:32.171Z,6.76
2017-01-11T13:34:55.079Z,6.85
2017-01-11T13:36:17.987Z,6.84
2017-01-11T13:37:40.584Z,6.84
2017-01-11T13:39:03.147Z,6.85
2017-01-11T13:40:25.656Z,6.81
2017-01-11T13:41:48.187Z,6.79
2017-01-11T13:43:09.475Z,6.8
2017-01-11T13:44:31.966Z,6.81
2017-01-11T13:45:54.835Z,6.89
2017-01-11T13:47:17.379Z,6.77
2017-01-11T13:48:39.483Z,6.69
2017-01-11T13:50:02.369Z,6.61
2017-01-11T13:51:24.471Z,6.56
2017-01-11T13:52:46.628Z,6.59
2017-01-11T13:54:09.117Z,6.62
2017-01-11T13:55:31.577Z,6.61
2017-01-11T13:56:54.062Z,6.69
2017-01-11T13:58:16.230Z,6.67
2017-01-11T13:59:39.161Z,6.56
2017-01-11T14:01:02.030Z,6.51
2017-01-11T14:02:24.898Z,6.49
2017-01-11T14:03:47.939Z,6.54
2017-01-11T14:05:10.027Z,6.54
2017-01-11T14:06:32.995Z,6.33
2017-01-11T14:07:55.484Z,6.46
2017-01-11T14:09:17.976Z,6.48
2017-01-11T14:10:40.043Z,6.51
2017-01-11T14:12:02.933Z,6.56
2017-01-11T14:13:25.579Z,6.52
2017-01-11T14:14:47.635Z,6.56
2017-01-11T14:16:10.501Z,6.73
2017-01-11T14:17:32.615Z,6.79
2017-01-11T14:18:54.307Z,6.87
2017-01-11T14:20:16.787Z,6.94
2017-01-11T14:21:39.729Z,6.95
2017-01-11T14:23:02.224Z,6.88
2017-01-11T14:24:24.740Z,6.94
2017-01-11T14:25:46.933Z,6.98
2017-01-11T14:27:09.826Z,7.03
2017-01-11T14:28:32.429Z,7.07
2017-01-11T14:29:54.532Z,6.97
2017-01-11T14:31:16.725Z,6.99
2017-01-11T14:32:38.830Z,6.91
2017-01-11T14:34:02.030Z,6.84
2017-01-11T14:35:24.551Z,6.81
2017-01-11T14:36:47.635Z,6.8
2017-01-11T14:38:10.126Z,6.8
2017-01-11T14:39:32.865Z,6.8
2017-01-11T14:40:55.380Z,6.74
2017-01-11T14:42:17.874Z,6.69
2017-01-11T14:43:40.552Z,6.74
2017-01-11T14:45:03.139Z,6.59
2017-01-11T14:46:24.809Z,6.66
2017-01-11T14:47:47.026Z,6.61
2017-01-11T14:49:09.547Z,6.54
2017-01-11T14:50:32.455Z,6.56
2017-01-11T14:51:54.997Z,6.64
2017-01-11T14:53:17.470Z,6.54
2017-01-11T14:54:39.950Z,6.48
2017-01-11T14:56:02.496Z,6.52
2017-01-11T14:57:24.990Z,6.56
2017-01-11T14:58:47.607Z,6.58
2017-01-11T15:00:10.525Z,6.48
2017-01-11T15:01:33.016Z,6.43
2017-01-11T15:02:55.512Z,6.22
2017-01-11T15:04:17.183Z,6.38
2017-01-11T15:05:39.765Z,6.31
2017-01-11T15:07:02.319Z,6.18
2017-01-11T15:08:24.803Z,6.19
2017-01-11T15:09:47.388Z,6.14
2017-01-11T15:11:10.285Z,6.08
2017-01-11T15:12:33.254Z,6.06
2017-01-11T15:13:55.317Z,6.04
2017-01-11T15:15:17.034Z,5.99
2017-01-11T15:16:40.788Z,5.93
2017-01-11T15:18:02.870Z,6.04
2017-01-11T15:19:25.125Z,5.93
2017-01-11T15:20:47.323Z,5.97
2017-01-11T15:22:09.790Z,5.93
2017-01-11T15:23:31.990Z,5.85
2017-01-11T15:24:54.633Z,5.83
2017-01-11T15:26:16.712Z,5.71
2017-01-11T15:27:38.843Z,5.71
2017-01-11T15:29:00.997Z,5.74
2017-01-11T15:30:23.874Z,5.71
2017-01-11T15:31:46.745Z,5.63
2017-01-11T15:33:09.266Z,5.64
2017-01-11T15:34:31.777Z,5.53
2017-01-11T15:35:54.588Z,5.42
2017-01-11T15:37:17.130Z,5.43
2017-01-11T15:38:39.837Z,5.45
2017-01-11T15:40:02.653Z,5.56
2017-01-11T15:41:25.137Z,5.51
2017-01-11T15:42:47.751Z,5.43
2017-01-11T15:44:10.663Z,5.45
2017-01-11T15:45:33.589Z,5.46
2017-01-11T15:46:56.109Z,5.42
2017-01-11T15:48:18.291Z,5.42
2017-01-11T15:49:41.206Z,5.48
2017-01-11T15:51:04.102Z,5.48
2017-01-11T15:52:27.038Z,5.49
2017-01-11T15:53:49.670Z,5.42
2017-01-11T15:55:12.616Z,5.6
2017-01-11T15:56:35.168Z,5.71
2017-01-11T15:57:58.054Z,5.67
2017-01-11T15:59:20.949Z,5.76
2017-01-11T16:00:43.428Z,5.81
2017-01-11T16:02:05.648Z,5.85
2017-01-11T16:03:28.562Z,5.81
2017-01-11T16:04:50.704Z,5.83
2017-01-11T16:06:13.291Z,5.81
2017-01-11T16:07:35.483Z,5.9
2017-01-11T16:08:58.530Z,5.83
2017-01-11T16:10:20.619Z,5.94
2017-01-11T16:11:42.740Z,6.01
2017-01-11T16:13:04.973Z,5.97
2017-01-11T16:14:27.084Z,5.96
2017-01-11T16:15:49.612Z,5.94
2017-01-11T16:17:12.090Z,6.04
2017-01-11T16:18:34.842Z,6.15
2017-01-11T16:19:57.347Z,6.11
2017-01-11T16:21:19.859Z,6.22
2017-01-11T16:22:42.846Z,6.37
2017-01-11T16:24:05.764Z,6.38
2017-01-11T16:25:28.659Z,6.48
2017-01-11T16:26:51.519Z,6.48
2017-01-11T16:28:14.150Z,6.33
2017-01-11T16:29:36.765Z,6.3
2017-01-11T16:30:59.845Z,6.46
2017-01-11T16:32:22.738Z,6.52
2017-01-11T16:33:45.261Z,6.51
2017-01-11T16:35:08.138Z,6.36
2017-01-11T16:36:30.645Z,6.41
2017-01-11T16:37:53.135Z,6.22
2017-01-11T16:39:16.088Z,6.18
2017-01-11T16:40:39.001Z,6.08
2017-01-11T16:42:01.287Z,6.06
2017-01-11T16:43:23.836Z,5.97
2017-01-11T16:44:46.789Z,5.89
2017-01-11T16:46:09.903Z,5.82
2017-01-11T16:47:32.808Z,5.85
2017-01-11T16:48:55.825Z,5.75
2017-01-11T16:50:17.584Z,5.76
2017-01-11T16:51:40.111Z,5.67
2017-01-11T16:53:02.705Z,5.49
2017-01-11T16:54:25.208Z,5.53
2017-01-11T16:55:47.808Z,5.49
2017-01-11T16:57:10.348Z,5.46
2017-01-11T16:58:32.871Z,5.4
2017-01-11T16:59:55.375Z,5.45
2017-01-11T17:01:18.642Z,5.42
2017-01-11T17:02:41.232Z,5.42
2017-01-11T17:04:05.373Z,5.43
2017-01-11T17:05:28.330Z,5.43
2017-01-11T17:06:51.034Z,5.53
2017-01-11T17:08:13.161Z,5.45
2017-01-11T17:09:36.139Z,5.46
2017-01-11T17:10:58.648Z,5.3
2017-01-11T17:12:21.491Z,5.36
2017-01-11T17:13:44.032Z,5.43
2017-01-11T17:15:06.716Z,5.4
2017-01-11T17:16:29.367Z,5.46
2017-01-11T17:17:51.493Z,5.53
2017-01-11T17:19:14.372Z,5.56
2017-01-11T17:20:36.867Z,5.54
2017-01-11T17:21:59.353Z,5.6
2017-01-11T17:23:22.824Z,5.65
2017-01-11T17:24:45.794Z,5.68
2017-01-11T17:26:08.092Z,5.79
2017-01-11T17:27:30.962Z,5.72
2017-01-11T17:28:53.475Z,5.71
2017-01-11T17:30:16.387Z,5.6
2017-01-11T17:31:39.372Z,5.57
2017-01-11T17:33:02.058Z,5.49
2017-01-11T17:34:24.566Z,5.53
2017-01-11T17:35:46.675Z,5.65
2017-01-11T17:37:09.565Z,5.74
2017-01-11T17:38:32.090Z,5.75
2017-01-11T17:39:54.182Z,5.78
2017-01-11T17:41:16.278Z,5.76
2017-01-11T17:42:38.033Z,5.79
2017-01-11T17:44:00.580Z,5.74
2017-01-11T17:45:23.181Z,5.71
2017-01-11T17:46:45.649Z,5.78
2017-01-11T17:48:08.550Z,5.85
2017-01-11T17:49:30.659Z,5.85
2017-01-11T17:50:53.174Z,5.94
2017-01-11T17:52:15.460Z,5.89
2017-01-11T17:53:38.347Z,5.81
2017-01-11T17:55:01.380Z,5.78
2017-01-11T17:56:24.078Z,5.74
2017-01-11T17:57:46.992Z,5.72
2017-01-11T17:59:09.998Z,5.71
2017-01-11T18:00:32.097Z,5.58
2017-01-11T18:01:54.185Z,5.61
2017-01-11T18:03:16.942Z,5.53
2017-01-11T18:04:39.955Z,5.46
2017-01-11T18:06:02.874Z,5.43
2017-01-11T18:07:25.807Z,5.35
2017-01-11T18:08:48.321Z,5.31
2017-01-11T18:10:10.882Z,5.24
2017-01-11T18:11:33.377Z,5.15
2017-01-11T18:12:56.447Z,5.17
2017-01-11T18:14:19.309Z,5.3
2017-01-11T18:15:41.820Z,5.43
2017-01-11T18:17:04.363Z,5.6
2017-01-11T18:18:27.258Z,5.45
2017-01-11T18:19:50.193Z,5.38
2017-01-11T18:21:12.345Z,5.33
2017-01-11T18:22:35.262Z,5.25
2017-01-11T18:23:58.196Z,5.31